Time,TemperatureF,DewpointF,PressureIn,WindDirection,WindDirectionDegrees,WindSpeedMPH,WindSpeedGustMPH,Humidity,HourlyPrecipIn,Conditions,Clouds,dailyrainin,SolarRadiationWatts/m^2,SoftwareType,DateUTC
2013-11-20 00:22:00,35.0,27.0,-100.00,ENE,74,6.0,10.0,73,-99.99,,,-99.99,0.000000,,2013-11-20 05:22:00,
2013-11-20 00:53:00,35.0,27.0,-100.00,ENE,68,7.0,10.0,72,-99.99,,,-99.99,0.000000,,2013-11-20 05:53:00,
2013-11-20 01:21:00,35.0,27.0,-100.00,East,97,6.0,9.0,70,-99.99,,,-99.99,0.000000,,2013-11-20 06:21:00,
2013-11-20 01:52:00,34.0,26.0,-100.00,East,81,4.0,6.0,73,-99.99,,,-99.99,0.000000,,2013-11-20 06:52:00,
2013-11-20 02:21:00,33.0,26.0,-100.00,East,82,3.0,6.0,74,-99.99,,,-99.99,0.000000,,2013-11-20 07:21:00,
2013-11-20 02:52:00,32.0,26.0,-100.00,ESE,103,1.0,2.0,79,-99.99,,,-99.99,0.000000,,2013-11-20 07:52:00,
2013-11-20 03:22:00,29.0,26.0,-100.00,East,97,2.0,3.0,86,-99.99,,,-99.99,0.000000,,2013-11-20 08:22:00,
2013-11-20 03:52:00,31.0,26.0,-100.00,ENE,68,2.0,2.0,81,-99.99,,,-99.99,0.000000,,2013-11-20 08:52:00,
2013-11-20 04:21:00,29.0,26.0,-100.00,East,89,3.0,4.0,88,-99.99,,,-99.99,0.000000,,2013-11-20 09:21:00,
2013-11-20 04:54:00,28.0,26.0,-100.00,North,-999,0.0,1.0,90,-99.99,,,-99.99,0.000000,,2013-11-20 09:54:00,
2013-11-20 05:23:00,27.0,25.0,-100.00,ESE,103,0.0,1.0,92,-99.99,,,-99.99,0.000000,,2013-11-20 10:23:00,
2013-11-20 05:53:00,27.0,25.0,-100.00,East,89,2.0,2.0,94,-99.99,,,-99.99,0.000000,,2013-11-20 10:53:00,
2013-11-20 06:22:00,27.0,25.0,-100.00,East,100,1.0,2.0,93,-99.99,,,-99.99,0.000000,,2013-11-20 11:22:00,
2013-11-20 06:52:00,30.0,27.0,-100.00,ESE,102,4.0,6.0,91,-99.99,,,-99.99,0.000000,,2013-11-20 11:52:00,
2013-11-20 07:22:00,30.0,26.0,-100.00,ESE,102,4.0,7.0,82,-99.99,,,-99.99,0.000000,,2013-11-20 12:22:00,
2013-11-20 07:52:00,30.0,25.0,-100.00,East,98,3.0,4.0,83,-99.99,,,-99.99,10.100000,,2013-11-20 12:52:00,
2013-11-20 08:22:00,30.0,25.0,-100.00,East,87,3.0,5.0,79,-99.99,,,-99.99,101.900002,,2013-11-20 13:22:00,
2013-11-20 08:52:00,32.0,26.0,-100.00,East,95,4.0,6.0,77,-99.99,,,-99.99,166.000000,,2013-11-20 13:52:00,
2013-11-20 09:22:00,34.0,28.0,-100.00,ESE,112,6.0,9.0,77,-99.99,,,-99.99,289.799988,,2013-11-20 14:22:00,
2013-11-20 09:52:00,36.0,28.0,-100.00,ESE,107,5.0,8.0,72,-99.99,,,-99.99,329.299988,,2013-11-20 14:52:00,
2013-11-20 10:00:00,39.0,27.0,-100.00,SE,135,4.0,7.0,63,-99.99,,,-99.99,382.899994,,2013-11-20 15:00:00,
2013-11-20 10:22:00,39.0,27.0,-100.00,SE,135,4.0,7.0,63,-99.99,,,-99.99,382.899994,,2013-11-20 15:22:00,
2013-11-20 10:33:00,39.0,27.0,-100.00,SE,135,4.0,7.0,63,-99.99,,,-99.99,382.899994,,2013-11-20 15:33:00,
2013-11-20 10:43:00,39.0,27.0,-100.00,SE,135,4.0,7.0,63,-99.99,,,-99.99,382.899994,,2013-11-20 15:43:00,
2013-11-20 10:54:00,39.0,27.0,-100.00,SE,135,4.0,7.0,63,-99.99,,,-99.99,382.899994,,2013-11-20 15:54:00,
2013-11-20 11:23:00,43.0,28.0,-100.00,SE,134,4.0,6.0,54,-99.99,,,-99.99,402.000000,,2013-11-20 16:23:00,
2013-11-20 11:52:00,45.0,30.0,-100.00,ESE,104,4.0,6.0,55,-99.99,,,-99.99,536.200012,,2013-11-20 16:52:00,
2013-11-20 12:22:00,47.0,31.0,-100.00,East,82,3.0,4.0,54,-99.99,,,-99.99,550.599976,,2013-11-20 17:22:00,
2013-11-20 12:52:00,50.0,31.0,-100.00,SE,131,3.0,5.0,48,-99.99,,,-99.99,532.000000,,2013-11-20 17:52:00,
2013-11-20 13:21:00,52.0,30.0,-100.00,SSE,158,3.0,6.0,44,-99.99,,,-99.99,517.599976,,2013-11-20 18:21:00,
2013-11-20 13:52:00,54.0,33.0,-100.00,East,98,6.0,9.0,46,-99.99,,,-99.99,521.500000,,2013-11-20 18:52:00,
2013-11-20 14:22:00,56.0,28.0,-100.00,ESE,112,5.0,10.0,35,-99.99,,,-99.99,456.100006,,2013-11-20 19:22:00,
2013-11-20 14:52:00,56.0,29.0,-100.00,ESE,118,5.0,9.0,34,-99.99,,,-99.99,417.000000,,2013-11-20 19:52:00,
2013-11-20 15:22:00,57.0,28.0,-100.00,SE,126,5.0,9.0,33,-99.99,,,-99.99,356.500000,,2013-11-20 20:22:00,
2013-11-20 15:52:00,57.0,30.0,-100.00,East,97,6.0,7.0,36,-99.99,,,-99.99,272.899994,,2013-11-20 20:52:00,
2013-11-20 16:22:00,56.0,29.0,-100.00,East,88,7.0,10.0,35,-99.99,,,-99.99,188.500000,,2013-11-20 21:22:00,
2013-11-20 16:53:00,56.0,30.0,-100.00,East,98,5.0,7.0,38,-99.99,,,-99.99,126.199997,,2013-11-20 21:53:00,
2013-11-20 17:23:00,54.0,31.0,-100.00,East,94,4.0,6.0,41,-99.99,,,-99.99,13.500000,,2013-11-20 22:23:00,
2013-11-20 17:53:00,51.0,30.0,-100.00,East,94,3.0,4.0,45,-99.99,,,-99.99,1.200000,,2013-11-20 22:53:00,